Time;durP1;ratioP1;P1;durP2;ratioP2;P2;SDS_P1;SDS_P2;PMS_P1;PMS_P2;Temp;Humidity;BMP_temperature;BMP_pressure;BME280_temperature;BME280_humidity;BME280_pressure;Samples;Min_cycle;Max_cycle;Signal;HPM_P1;HPM_P2
2022/01/13 00:00:51;;;;;;;9.70;4.88;;;9.90;75.80;;;;;;5079791;28;20027;-81
2022/01/13 00:03:17;;;;;;;8.05;5.00;;;9.80;75.50;;;;;;5095174;28;20040;-80
2022/01/13 00:05:43;;;;;;;8.98;4.70;;;9.90;75.70;;;;;;5095029;28;20435;-81
2022/01/13 00:08:08;;;;;;;6.95;4.60;;;9.90;75.80;;;;;;5081915;28;20032;-81
2022/01/13 00:10:34;;;;;;;8.38;4.53;;;9.90;76.00;;;;;;5074862;28;20020;-80
2022/01/13 00:13:08;;;;;;;8.60;5.65;;;9.90;76.10;;;;;;5075018;28;20071;-81
2022/01/13 00:15:47;;;;;;;8.60;5.15;;;10.00;76.00;;;;;;5074736;28;20072;-81
2022/01/13 00:18:16;;;;;;;7.03;5.10;;;9.90;75.40;;;;;;5074925;28;20032;-81
2022/01/13 00:26:14;;;;;;;9.35;5.10;;;9.90;75.20;;;;;;5074443;28;20063;-80
2022/01/13 00:29:02;;;;;;;8.18;4.80;;;10.00;76.30;;;;;;5074550;28;20023;-81
2022/01/13 00:31:32;;;;;;;9.63;5.47;;;10.00;75.90;;;;;;5081827;28;20024;-81
2022/01/13 00:34:00;;;;;;;8.15;5.15;;;10.00;75.80;;;;;;5090249;28;20012;-80
2022/01/13 00:36:29;;;;;;;6.85;4.50;;;10.20;76.10;;;;;;5091249;28;20393;-80
2022/01/13 00:38:55;;;;;;;7.97;5.15;;;10.20;75.60;;;;;;5078565;28;20024;-80
2022/01/13 00:41:23;;;;;;;9.30;5.07;;;10.20;75.30;;;;;;5094202;28;20036;-80
2022/01/13 00:43:49;;;;;;;10.00;5.45;;;10.20;74.90;;;;;;5097559;28;20072;-80
2022/01/13 00:46:22;;;;;;;8.43;5.18;;;10.20;75.10;;;;;;5085124;28;20028;-80
2022/01/13 00:48:51;;;;;;;8.10;5.32;;;10.10;75.70;;;;;;5077384;28;20126;-81
2022/01/13 00:51:17;;;;;;;9.88;4.97;;;10.20;75.50;;;;;;5078529;28;20050;-81
2022/01/13 00:53:43;;;;;;;8.48;5.35;;;10.00;74.60;;;;;;5078473;28;20104;-80
2022/01/13 00:56:08;;;;;;;7.88;5.00;;;9.80;74.20;;;;;;5078384;28;20064;-80
2022/01/13 00:58:35;;;;;;;7.07;4.78;;;9.80;74.80;;;;;;5078498;28;20028;-80
2022/01/13 01:01:03;;;;;;;8.30;5.20;;;9.80;74.80;;;;;;5084279;28;20033;-80
2022/01/13 01:03:32;;;;;;;9.63;5.00;;;9.90;74.90;;;;;;5118601;28;20055;-80
2022/01/13 01:05:58;;;;;;;8.20;5.13;;;9.90;74.70;;;;;;5089657;28;20024;-80
2022/01/13 01:08:24;;;;;;;6.00;4.50;;;9.70;74.00;;;;;;5078242;28;20025;-81
2022/01/13 01:10:53;;;;;;;6.15;4.03;;;9.80;75.30;;;;;;5078173;28;20025;-80
2022/01/13 01:13:22;;;;;;;6.20;4.75;;;9.60;73.30;;;;;;5077910;28;20017;-79
2022/01/13 01:15:53;;;;;;;7.18;4.80;;;9.70;74.00;;;;;;5077975;28;20074;-79
2022/01/13 01:21:15;;;;;;;7.03;4.55;;;9.70;74.20;;;;;;5078036;28;20058;-79
2022/01/13 01:28:54;;;;;;;9.07;5.80;;;9.70;73.90;;;;;;5078018;28;20021;-79
2022/01/13 01:31:28;;;;;;;6.55;4.55;;;9.50;73.00;;;;;;5077720;28;20502;-79
2022/01/13 01:34:13;;;;;;;5.82;4.72;;;9.50;74.40;;;;;;5077592;28;20150;-79
2022/01/13 01:36:40;;;;;;;6.13;4.57;;;9.50;74.20;;;;;;5077565;28;20566;-79
2022/01/13 01:39:07;;;;;;;7.75;5.45;;;9.50;74.90;;;;;;5092981;28;20025;-78
2022/01/13 01:41:39;;;;;;;6.25;4.55;;;9.50;74.70;;;;;;5077654;28;20406;-79
2022/01/13 01:44:10;;;;;;;8.15;5.68;;;9.50;74.80;;;;;;5096413;28;20382;-78
2022/01/13 01:46:42;;;;;;;6.30;4.85;;;9.30;74.60;;;;;;5082932;28;20040;-79
2022/01/13 01:49:16;;;;;;;7.13;5.20;;;9.30;75.40;;;;;;5077327;28;20424;-79
2022/01/13 01:51:42;;;;;;;8.80;5.70;;;9.20;74.80;;;;;;5077518;28;20781;-79
2022/01/13 01:54:14;;;;;;;6.57;4.45;;;9.10;74.90;;;;;;5077426;28;20017;-79
2022/01/13 01:56:41;;;;;;;8.25;5.55;;;9.10;75.40;;;;;;5076819;28;20028;-79
2022/01/13 01:59:13;;;;;;;9.10;6.47;;;9.10;75.60;;;;;;5077467;28;20024;-78
2022/01/13 02:01:39;;;;;;;12.73;5.82;;;9.00;75.30;;;;;;5077267;28;20032;-78
2022/01/13 02:04:05;;;;;;;10.52;6.47;;;8.90;75.60;;;;;;5075731;28;20017;-79
2022/01/13 02:06:31;;;;;;;13.20;6.65;;;8.80;75.60;;;;;;5077077;28;20474;-79
2022/01/13 02:08:57;;;;;;;13.30;6.53;;;8.70;75.20;;;;;;5077106;28;20070;-78
2022/01/13 02:11:27;;;;;;;11.82;6.57;;;8.70;75.70;;;;;;5076936;28;20104;-79
2022/01/13 02:13:57;;;;;;;10.98;6.55;;;8.60;75.60;;;;;;5077352;28;20020;-79
2022/01/13 02:16:43;;;;;;;;;;;8.60;76.30;;;;;;5095874;28;20131;-78
2022/01/13 02:19:10;;;;;;;13.90;7.57;;;8.60;76.70;;;;;;5097155;28;20464;-79
2022/01/13 02:21:36;;;;;;;12.32;6.60;;;8.60;76.10;;;;;;5112840;28;20059;-79
2022/01/13 02:24:02;;;;;;;13.65;7.95;;;8.50;76.00;;;;;;5096706;28;20035;-78
2022/01/13 02:26:28;;;;;;;10.82;6.53;;;8.40;76.40;;;;;;5076569;28;20029;-78
2022/01/13 02:28:54;;;;;;;13.23;6.50;;;8.40;76.20;;;;;;5091948;28;20029;-78
2022/01/13 02:31:21;;;;;;;13.02;6.97;;;8.40;77.00;;;;;;5076780;28;20414;-78
2022/01/13 02:33:47;;;;;;;10.70;6.40;;;8.40;76.90;;;;;;5092127;28;20027;-78
2022/01/13 02:36:19;;;;;;;9.98;5.95;;;8.40;77.00;;;;;;5092086;28;20516;-78
2022/01/13 02:38:53;;;;;;;9.93;6.03;;;8.40;77.10;;;;;;5075225;28;20040;-78
2022/01/13 02:41:22;;;;;;;9.73;5.72;;;8.30;77.30;;;;;;5076627;28;20027;-78
2022/01/13 02:43:49;;;;;;;10.73;6.35;;;8.20;77.40;;;;;;5093864;28;20028;-79
2022/01/13 02:49:11;;;;;;;8.80;5.65;;;8.30;77.60;;;;;;5076359;28;20032;-78
2022/01/13 02:51:42;;;;;;;9.32;5.05;;;8.30;77.90;;;;;;5076289;28;20029;-78
2022/01/13 02:54:08;;;;;;;9.20;6.00;;;8.30;77.90;;;;;;5076234;28;20025;-78
2022/01/13 02:56:35;;;;;;;9.10;5.13;;;8.40;77.60;;;;;;5076120;28;20543;-78
2022/01/13 02:59:01;;;;;;;9.80;6.18;;;8.50;77.30;;;;;;5075190;28;20094;-79
2022/01/13 03:01:27;;;;;;;10.45;6.22;;;8.60;77.30;;;;;;5076025;28;20032;-78
2022/01/13 03:03:53;;;;;;;8.75;5.80;;;8.60;77.10;;;;;;5075675;28;20044;-78
2022/01/13 03:06:24;;;;;;;9.30;6.00;;;8.70;76.90;;;;;;5075826;28;20395;-78
2022/01/13 03:08:50;;;;;;;8.98;5.72;;;8.70;77.20;;;;;;5075929;28;20143;-78
2022/01/13 03:11:16;;;;;;;7.25;5.20;;;8.60;76.70;;;;;;5075716;28;20146;-78
2022/01/13 03:13:42;;;;;;;8.63;5.18;;;8.70;76.80;;;;;;5074609;28;20033;-78
2022/01/13 03:16:10;;;;;;;8.80;5.32;;;8.70;76.70;;;;;;5075591;28;20047;-78
2022/01/13 03:18:36;;;;;;;8.15;5.68;;;8.70;77.20;;;;;;5075550;28;20040;-78
2022/01/13 03:21:03;;;;;;;7.90;5.57;;;8.70;77.10;;;;;;5075618;28;20032;-78
2022/01/13 03:23:29;;;;;;;9.18;5.60;;;8.70;77.00;;;;;;5090805;28;20525;-78
2022/01/13 03:25:54;;;;;;;11.32;5.90;;;8.70;76.90;;;;;;5075495;28;20021;-78
2022/01/13 03:28:31;;;;;;;9.25;5.60;;;8.60;77.10;;;;;;5075721;28;20016;-78
2022/01/13 03:31:04;;;;;;;10.45;6.15;;;8.60;77.00;;;;;;5091122;28;20021;-78
2022/01/13 03:33:30;;;;;;;8.00;5.07;;;8.60;77.00;;;;;;5075381;28;20029;-78
2022/01/13 03:35:57;;;;;;;9.23;5.53;;;8.60;77.10;;;;;;5075524;28;20587;-78
2022/01/13 03:38:24;;;;;;;9.85;6.03;;;8.50;77.10;;;;;;5077793;28;20115;-77
2022/01/13 03:40:50;;;;;;;9.98;5.53;;;8.50;77.10;;;;;;5075682;28;20513;-77
2022/01/13 03:43:17;;;;;;;10.07;5.28;;;8.50;77.10;;;;;;5089461;28;20600;-78
2022/01/13 03:45:43;;;;;;;9.10;5.70;;;8.60;77.00;;;;;;5090659;28;20024;-78
2022/01/13 03:48:13;;;;;;;8.77;5.63;;;8.50;77.10;;;;;;5075270;28;20056;-78
2022/01/13 03:50:39;;;;;;;;;;;8.50;77.10;;;;;;5074253;28;20029;-78
2022/01/13 03:53:27;;;;;;;10.30;6.70;;;8.60;77.20;;;;;;5075097;28;20439;-78
2022/01/13 03:56:38;;;;;;;10.57;6.30;;;8.50;77.20;;;;;;5075255;28;20597;-78
2022/01/13 03:59:31;;;;;;;8.85;6.00;;;8.40;77.30;;;;;;5069265;28;20044;-78
2022/01/13 04:02:03;;;;;;;11.23;6.70;;;8.50;77.30;;;;;;5075136;28;20096;-78
2022/01/13 04:04:34;;;;;;;12.50;6.57;;;8.30;76.80;;;;;;5075236;28;20024;-78
2022/01/13 04:07:12;;;;;;;13.45;7.22;;;8.20;77.10;;;;;;5075050;28;20110;-78
2022/01/13 04:09:40;;;;;;;12.82;6.75;;;8.00;77.30;;;;;;5095058;28;20467;-78
2022/01/13 04:12:09;;;;;;;11.48;7.13;;;7.90;77.90;;;;;;5095002;28;20020;-78
2022/01/13 04:14:46;;;;;;;11.60;7.60;;;8.00;78.00;;;;;;5087526;28;20127;-78
2022/01/13 04:17:18;;;;;;;12.77;7.28;;;7.80;78.00;;;;;;5075099;28;20107;-78
2022/01/13 04:19:45;;;;;;;11.15;7.13;;;7.80;78.80;;;;;;5074974;28;20071;-78
2022/01/13 04:22:29;;;;;;;12.63;7.45;;;7.70;78.80;;;;;;5074899;28;20016;-79
2022/01/13 04:24:54;;;;;;;15.23;8.60;;;7.70;79.40;;;;;;5074749;28;20088;-78
2022/01/13 04:27:31;;;;;;;13.80;7.85;;;7.60;78.70;;;;;;5074976;28;20099;-78
2022/01/13 04:32:45;;;;;;;10.88;7.50;;;7.70;79.50;;;;;;5054804;28;20029;-78
2022/01/13 04:35:11;;;;;;;12.55;8.13;;;7.90;78.60;;;;;;5074720;28;20477;-78
2022/01/13 04:37:38;;;;;;;12.50;7.53;;;8.10;78.20;;;;;;5073390;28;20021;-78
2022/01/13 04:40:05;;;;;;;15.48;7.97;;;8.00;77.30;;;;;;5074609;28;20036;-78
2022/01/13 04:42:35;;;;;;;12.27;7.85;;;8.00;78.00;;;;;;5082711;28;20027;-78
2022/01/13 04:45:04;;;;;;;;;;;8.10;77.90;;;;;;5095353;28;20031;-78
2022/01/13 04:47:30;;;;;;;12.43;7.65;;;8.10;78.20;;;;;;5094789;28;19908;-78
2022/01/13 04:49:56;;;;;;;13.07;7.57;;;8.10;78.10;;;;;;5091174;28;20028;-78
2022/01/13 04:52:21;;;;;;;11.00;7.45;;;8.10;78.10;;;;;;5074414;28;20025;-78
2022/01/13 04:54:47;;;;;;;14.82;8.00;;;8.20;77.70;;;;;;5073110;28;20067;-78
2022/01/13 04:57:17;;;;;;;13.20;7.72;;;8.00;78.00;;;;;;5080572;28;20029;-78
2022/01/13 04:59:44;;;;;;;11.43;7.75;;;8.00;78.40;;;;;;5110503;28;20024;-78
2022/01/13 05:02:16;;;;;;;12.35;7.97;;;7.90;78.40;;;;;;5090489;28;20479;-77
2022/01/13 05:04:42;;;;;;;11.77;7.57;;;7.90;78.60;;;;;;5074297;28;20056;-78
2022/01/13 05:07:07;;;;;;;12.77;7.72;;;7.80;78.70;;;;;;5073286;28;20040;-77
2022/01/13 05:09:33;;;;;;;12.48;8.10;;;7.80;79.00;;;;;;5074450;28;20044;-78
2022/01/13 05:12:00;;;;;;;14.20;8.23;;;7.90;78.80;;;;;;5073041;28;20021;-78
2022/01/13 05:14:26;;;;;;;15.98;8.00;;;7.90;78.80;;;;;;5072909;28;20021;-78
2022/01/13 05:19:30;;;;;;;13.45;7.57;;;7.90;79.00;;;;;;5074398;28;20035;-78
2022/01/13 05:22:15;;;;;;;10.45;6.97;;;7.90;78.50;;;;;;5074259;28;20027;-78
2022/01/13 05:24:42;;;;;;;14.60;8.43;;;8.00;79.10;;;;;;5077849;28;20013;-78
2022/01/13 05:27:08;;;;;;;14.73;8.52;;;8.00;78.40;;;;;;5093299;28;20025;-78
2022/01/13 05:29:34;;;;;;;11.65;7.78;;;8.00;78.70;;;;;;5093484;28;20024;-78
2022/01/13 05:31:59;;;;;;;13.73;8.23;;;8.00;79.00;;;;;;5077740;28;20032;-78
2022/01/13 05:34:25;;;;;;;17.70;9.25;;;8.10;79.00;;;;;;5077582;28;20024;-78
2022/01/13 05:36:51;;;;;;;12.23;7.40;;;8.20;78.60;;;;;;5076314;28;20028;-78
2022/01/13 05:39:16;;;;;;;16.45;8.52;;;8.00;79.00;;;;;;5076478;28;20025;-78
2022/01/13 05:41:42;;;;;;;15.65;9.18;;;8.00;78.70;;;;;;5078416;28;20024;-81
2022/01/13 05:44:08;;;;;;;16.02;9.43;;;8.00;79.00;;;;;;5077428;28;20055;-77
2022/01/13 05:54:26;;;;;;;13.48;7.00;;;7.30;80.70;;;;;;5113140;27;20799;-79
2022/01/13 05:56:52;;;;;;;15.75;8.77;;;7.10;82.00;;;;;;5111733;28;20074;-79
2022/01/13 05:59:21;;;;;;;14.18;8.00;;;7.30;81.80;;;;;;5112847;28;20032;-80
2022/01/13 06:01:48;;;;;;;15.75;8.50;;;7.50;81.70;;;;;;5112768;28;20042;-79
2022/01/13 06:04:13;;;;;;;12.18;7.18;;;7.70;81.40;;;;;;5112223;28;20699;-81
2022/01/13 06:06:39;;;;;;;15.90;8.90;;;7.80;81.00;;;;;;5094290;28;20036;-75
2022/01/13 06:09:04;;;;;;;14.23;8.73;;;7.80;80.10;;;;;;5092376;28;20062;-78
2022/01/13 06:11:38;;;;;;;14.48;8.73;;;8.00;80.40;;;;;;5092263;28;20391;-78
2022/01/13 06:14:04;;;;;;;15.38;8.77;;;7.90;79.60;;;;;;5107964;28;20032;-79
2022/01/13 06:16:35;;;;;;;14.15;7.70;;;7.90;80.30;;;;;;5112431;28;20489;-77
2022/01/13 06:19:02;;;;;;;14.02;8.48;;;8.00;79.80;;;;;;5112171;28;20099;-79
2022/01/13 06:21:28;;;;;;;11.85;7.53;;;7.80;79.40;;;;;;5100139;28;20024;-77
2022/01/13 06:23:54;;;;;;;9.98;6.53;;;7.80;79.90;;;;;;5091011;28;20028;-75
2022/01/13 06:26:20;;;;;;;12.88;7.47;;;7.80;79.40;;;;;;5090704;28;20036;-75
2022/01/13 06:28:45;;;;;;;15.10;7.30;;;7.70;79.70;;;;;;5091469;28;20036;-82
2022/01/13 06:31:11;;;;;;;11.07;6.90;;;7.80;79.80;;;;;;5089318;28;20554;-81
2022/01/13 06:33:36;;;;;;;13.38;7.18;;;7.80;79.40;;;;;;5081197;28;20073;-81
2022/01/13 06:36:07;;;;;;;14.73;7.03;;;7.80;79.40;;;;;;5091552;28;20030;-81
2022/01/13 06:38:33;;;;;;;;;;;7.80;79.30;;;;;;5091484;28;20103;-81
2022/01/13 06:41:00;;;;;;;13.73;7.88;;;7.80;79.30;;;;;;5091239;28;19985;-81
2022/01/13 06:43:26;;;;;;;13.00;7.43;;;7.90;79.60;;;;;;5090425;28;20385;-81
2022/01/13 06:45:52;;;;;;;14.88;7.60;;;7.90;79.30;;;;;;5091754;28;20103;-81
2022/01/13 06:48:18;;;;;;;10.90;7.50;;;8.00;79.50;;;;;;5091221;28;20025;-81
2022/01/13 06:50:46;;;;;;;15.52;7.32;;;8.00;79.10;;;;;;5091267;28;20538;-81
2022/01/13 06:53:11;;;;;;;12.10;7.72;;;8.10;79.10;;;;;;5091518;28;20400;-81
2022/01/13 06:55:37;;;;;;;13.30;7.55;;;8.00;79.30;;;;;;5091513;28;20099;-81
2022/01/13 06:58:03;;;;;;;13.25;7.88;;;8.00;79.50;;;;;;5090985;28;20453;-81
2022/01/13 07:00:29;;;;;;;13.85;8.00;;;8.20;79.30;;;;;;5091514;28;20059;-78
2022/01/13 07:02:58;;;;;;;10.68;6.57;;;8.20;79.00;;;;;;5088683;28;20028;-79
2022/01/13 07:05:24;;;;;;;13.98;8.00;;;8.20;79.00;;;;;;5077613;28;20071;-81
2022/01/13 07:07:53;;;;;;;15.10;8.35;;;8.30;78.80;;;;;;5077362;28;20608;-80
2022/01/13 07:10:18;;;;;;;12.95;8.77;;;8.20;78.60;;;;;;5076359;28;20028;-81
2022/01/13 07:12:44;;;;;;;78.25;36.00;;;8.20;78.60;;;;;;5074012;28;20115;-78
2022/01/13 07:15:11;;;;;;;43.55;22.17;;;8.10;78.60;;;;;;5072109;28;20036;-78
2022/01/13 07:17:37;;;;;;;28.20;16.35;;;8.00;78.90;;;;;;5076508;28;20044;-78
2022/01/13 07:20:04;;;;;;;40.65;22.05;;;8.10;79.10;;;;;;5076802;28;20035;-79
2022/01/13 07:22:30;;;;;;;30.17;17.98;;;8.00;78.90;;;;;;5076629;28;20599;-82
2022/01/13 07:24:55;;;;;;;34.33;21.40;;;7.90;79.10;;;;;;5077164;28;20402;-81
2022/01/13 07:27:23;;;;;;;31.45;16.80;;;7.90;79.10;;;;;;5076523;28;20035;-81
2022/01/13 07:29:49;;;;;;;31.40;16.80;;;7.80;79.10;;;;;;5076356;28;20363;-81
2022/01/13 07:32:15;;;;;;;27.92;18.05;;;7.80;78.90;;;;;;5076086;28;20066;-81
2022/01/13 14:00:59;;;;;;;10.25;5.70;;;8.40;75.40;;;;;;5069463;28;20847;-78
2022/01/13 14:03:38;;;;;;;11.38;5.90;;;8.50;75.80;;;;;;5054987;28;20079;-79
2022/01/13 14:06:04;;;;;;;11.25;6.38;;;8.80;75.20;;;;;;5048288;28;20029;-81
2022/01/13 14:08:29;;;;;;;9.52;6.68;;;9.00;73.80;;;;;;5049027;28;20027;-82
2022/01/13 14:11:09;;;;;;;17.92;8.98;;;9.30;73.60;;;;;;5061981;28;20021;-83
2022/01/13 14:13:34;;;;;;;10.90;5.75;;;9.50;72.10;;;;;;5071445;28;20083;-81
2022/01/13 14:16:00;;;;;;;9.25;5.88;;;9.50;71.20;;;;;;5067578;28;20108;-81
2022/01/13 14:18:26;;;;;;;13.07;6.63;;;9.60;71.20;;;;;;5064495;28;20029;-82
2022/01/13 14:20:57;;;;;;;11.80;6.63;;;9.70;71.40;;;;;;5070231;28;20451;-85
2022/01/13 14:23:29;;;;;;;10.13;6.70;;;9.70;70.60;;;;;;5069947;28;20028;-83
2022/01/13 14:26:22;;;;;;;10.68;6.13;;;9.70;70.40;;;;;;5070368;28;20146;-83
2022/01/13 14:28:51;;;;;;;10.77;6.43;;;9.80;70.70;;;;;;5051348;28;20041;-83
2022/01/13 14:31:18;;;;;;;9.88;6.43;;;9.80;70.70;;;;;;5065492;28;20116;-84
2022/01/13 14:33:45;;;;;;;10.40;6.78;;;9.60;70.50;;;;;;5053091;28;20075;-84
2022/01/13 14:36:19;;;;;;;13.75;8.52;;;9.60;70.70;;;;;;5077114;28;20025;-84
2022/01/13 14:38:54;;;;;;;16.75;10.45;;;9.60;70.60;;;;;;5074287;28;20020;-85
2022/01/13 14:41:26;;;;;;;18.95;10.75;;;9.70;71.00;;;;;;5068444;28;20025;-85
2022/01/13 14:44:18;;;;;;;11.05;7.45;;;9.70;69.90;;;;;;5072441;28;20035;-85
2022/01/13 14:46:46;;;;;;;13.23;7.80;;;9.50;70.10;;;;;;5044742;28;20129;-84
2022/01/13 14:49:13;;;;;;;11.10;7.38;;;9.70;70.70;;;;;;5051087;28;20032;-85
2022/01/13 14:51:44;;;;;;;10.02;5.60;;;9.70;70.30;;;;;;5051500;28;20037;-85
2022/01/13 14:54:11;;;;;;;8.10;5.82;;;9.70;70.80;;;;;;5052266;28;20017;-84
2022/01/13 14:56:37;;;;;;;11.48;6.55;;;9.70;69.80;;;;;;5068372;28;20028;-85
2022/01/13 14:59:03;;;;;;;13.38;7.40;;;9.80;70.20;;;;;;5070166;28;20063;-85
2022/01/13 15:01:29;;;;;;;11.32;6.53;;;9.70;69.80;;;;;;5071003;28;20025;-85
2022/01/13 15:03:55;;;;;;;16.92;9.13;;;9.70;70.20;;;;;;5059422;28;20555;-85
2022/01/13 15:06:22;;;;;;;15.18;8.50;;;9.50;69.90;;;;;;5067106;28;20056;-85
2022/01/13 15:08:49;;;;;;;20.13;8.57;;;9.50;70.50;;;;;;5067293;28;20080;-85
2022/01/13 15:11:15;;;;;;;13.00;6.35;;;9.60;70.70;;;;;;5063407;28;20032;-84
2022/01/13 15:13:45;;;;;;;12.05;7.05;;;9.60;70.40;;;;;;5060653;28;20017;-85
2022/01/13 15:16:11;;;;;;;15.93;8.70;;;9.60;70.70;;;;;;5061054;28;20021;-85
2022/01/13 15:18:37;;;;;;;12.57;7.38;;;9.70;70.90;;;;;;5063907;28;20033;-84
2022/01/13 15:21:04;;;;;;;15.75;9.02;;;9.70;70.70;;;;;;5063106;28;20088;-83
2022/01/13 15:23:30;;;;;;;15.73;8.18;;;9.50;70.80;;;;;;5052587;28;20025;-85
2022/01/13 15:25:56;;;;;;;9.73;6.28;;;9.60;70.70;;;;;;5056634;28;20044;-85
2022/01/13 15:28:23;;;;;;;12.93;7.50;;;9.60;70.90;;;;;;5056577;28;20407;-85
2022/01/13 15:30:49;;;;;;;16.92;8.88;;;9.50;70.40;;;;;;5047968;28;20041;-82
2022/01/13 15:33:15;;;;;;;13.40;8.70;;;9.60;70.80;;;;;;5062487;28;20021;-87
2022/01/13 15:35:45;;;;;;;9.38;6.72;;;9.60;70.40;;;;;;5058243;28;20043;-83
2022/01/13 15:38:11;;;;;;;13.35;9.50;;;9.50;70.40;;;;;;5068514;28;20017;-84
2022/01/13 15:40:37;;;;;;;11.38;7.93;;;9.40;70.90;;;;;;5059429;28;20502;-85
2022/01/13 15:43:04;;;;;;;14.00;8.70;;;9.30;71.60;;;;;;5059019;28;20029;-85
2022/01/13 15:45:30;;;;;;;11.25;7.47;;;9.30;71.60;;;;;;5063208;28;20024;-84
2022/01/13 15:47:57;;;;;;;15.10;10.30;;;9.20;72.30;;;;;;5060383;28;20028;-86
2022/01/13 15:50:23;;;;;;;13.23;7.78;;;9.10;72.30;;;;;;5057872;28;20459;-87
2022/01/13 15:52:50;;;;;;;13.65;8.95;;;9.20;72.20;;;;;;5053875;28;20589;-88
2022/01/13 15:55:16;;;;;;;13.32;8.52;;;9.20;72.40;;;;;;5056827;28;20074;-89
2022/01/13 15:57:41;;;;;;;15.60;8.73;;;9.10;72.30;;;;;;5056357;28;20099;-89
2022/01/13 16:00:14;;;;;;;13.80;10.20;;;9.10;72.70;;;;;;5054597;28;20579;-88
2022/01/13 16:02:41;;;;;;;14.73;10.15;;;9.20;72.70;;;;;;5056706;28;20028;-88
2022/01/13 16:05:08;;;;;;;12.93;8.32;;;9.30;72.60;;;;;;5053334;28;20025;-88
2022/01/13 16:07:34;;;;;;;14.18;9.07;;;9.20;72.40;;;;;;5063332;28;20113;-89
2022/01/13 16:09:59;;;;;;;16.80;10.30;;;9.20;72.70;;;;;;5064966;28;20122;-89
2022/01/13 16:12:28;;;;;;;12.95;8.68;;;9.10;72.60;;;;;;5063314;28;20639;-88
2022/01/13 16:14:57;;;;;;;13.98;9.02;;;9.10;72.90;;;;;;5062341;28;20164;-88
2022/01/13 16:17:25;;;;;;;9.60;6.60;;;9.00;73.10;;;;;;5060611;28;20460;-88
2022/01/13 16:19:53;;;;;;;9.43;6.63;;;8.90;73.40;;;;;;5061238;28;20068;-89
2022/01/13 16:22:19;;;;;;;9.38;6.47;;;8.80;73.50;;;;;;5060797;28;20293;-89
2022/01/13 16:24:45;;;;;;;11.82;7.32;;;8.70;73.90;;;;;;5060403;28;20094;-90
2022/01/13 16:27:10;;;;;;;9.55;6.20;;;8.70;74.40;;;;;;5054577;28;20017;-88
2022/01/13 16:29:56;;;;;;;10.07;6.72;;;8.60;74.40;;;;;;5046581;28;20477;-88
2022/01/13 16:32:36;;;;;;;9.90;7.25;;;8.50;74.80;;;;;;5052104;28;20395;-87
2022/01/13 16:35:05;;;;;;;9.00;6.93;;;8.50;75.00;;;;;;5052318;28;20025;-87
2022/01/13 16:37:35;;;;;;;9.68;6.22;;;8.30;75.40;;;;;;5063411;28;20025;-86
2022/01/13 16:40:02;;;;;;;11.50;7.10;;;8.30;75.60;;;;;;5060806;28;20510;-86
2022/01/13 16:42:28;;;;;;;10.50;7.22;;;8.30;75.90;;;;;;5057857;28;20053;-86
2022/01/13 16:44:53;;;;;;;10.43;7.35;;;8.20;76.00;;;;;;5059404;28;20574;-87
2022/01/13 16:47:19;;;;;;;11.05;6.85;;;8.20;76.20;;;;;;5044498;28;20056;-86
2022/01/13 16:49:46;;;;;;;11.95;7.18;;;8.20;75.90;;;;;;5051111;28;20407;-85
2022/01/13 16:52:14;;;;;;;14.00;8.35;;;8.20;76.30;;;;;;5054071;28;20114;-87
2022/01/13 16:54:40;;;;;;;14.30;8.43;;;8.10;76.40;;;;;;5050025;28;20036;-85
2022/01/13 16:57:07;;;;;;;13.27;8.38;;;8.10;76.60;;;;;;5044529;28;20039;-85
2022/01/13 16:59:33;;;;;;;14.90;8.77;;;8.10;76.70;;;;;;5038230;28;20037;-84
2022/01/13 17:01:59;;;;;;;12.50;7.85;;;8.00;76.50;;;;;;5049706;28;20025;-82
2022/01/13 17:04:27;;;;;;;13.20;8.15;;;8.00;76.60;;;;;;5051602;28;20040;-85
2022/01/13 17:06:57;;;;;;;11.40;7.55;;;7.90;76.70;;;;;;5047960;28;20021;-85
2022/01/13 17:09:22;;;;;;;14.52;7.90;;;7.90;76.80;;;;;;5048542;28;20029;-85
2022/01/13 17:11:49;;;;;;;20.27;10.70;;;7.90;76.90;;;;;;5040127;28;20033;-86
2022/01/13 17:14:14;;;;;;;24.10;14.13;;;7.80;77.00;;;;;;5049444;28;20510;-86
2022/01/13 17:16:40;;;;;;;21.77;12.98;;;7.80;77.30;;;;;;5052469;28;20364;-85
2022/01/13 17:19:06;;;;;;;22.95;13.05;;;7.70;77.60;;;;;;5046707;28;20104;-85
2022/01/13 17:21:36;;;;;;;25.27;16.15;;;7.70;77.50;;;;;;5052341;28;20028;-86
2022/01/13 17:24:04;;;;;;;26.92;16.38;;;7.70;77.50;;;;;;5036594;28;20028;-85
2022/01/13 17:26:29;;;;;;;21.08;14.02;;;7.70;77.20;;;;;;5058023;28;20031;-86
2022/01/13 17:28:55;;;;;;;24.95;19.02;;;7.70;77.30;;;;;;5041591;28;20025;-86
2022/01/13 17:31:21;;;;;;;17.58;14.15;;;7.60;77.60;;;;;;5051104;28;20034;-87
2022/01/13 17:33:47;;;;;;;18.73;12.20;;;7.50;78.10;;;;;;5058228;28;20021;-86
2022/01/13 17:36:13;;;;;;;17.38;12.32;;;7.60;78.00;;;;;;5054865;28;20024;-85
2022/01/13 17:38:39;;;;;;;19.92;11.88;;;7.60;77.50;;;;;;5050803;28;20029;-85
2022/01/13 17:41:05;;;;;;;21.75;10.75;;;7.50;77.50;;;;;;5050473;28;20033;-86
2022/01/13 17:43:31;;;;;;;16.65;10.07;;;7.50;77.90;;;;;;5052228;28;20013;-85
2022/01/13 17:45:56;;;;;;;19.35;10.95;;;7.50;78.00;;;;;;5043671;28;20532;-86
2022/01/13 17:48:23;;;;;;;15.05;10.20;;;7.50;77.90;;;;;;5047751;28;20017;-86
2022/01/13 17:50:49;;;;;;;19.98;12.13;;;7.40;77.90;;;;;;5042818;28;20140;-87
2022/01/13 17:53:15;;;;;;;28.98;17.13;;;7.40;78.00;;;;;;5051713;28;20021;-86
2022/01/13 17:55:41;;;;;;;24.77;15.55;;;7.30;78.10;;;;;;5045178;28;20025;-87
2022/01/13 17:58:07;;;;;;;33.53;23.40;;;7.20;78.60;;;;;;5048335;28;20683;-80
2022/01/13 18:00:33;;;;;;;27.60;19.30;;;7.20;78.40;;;;;;5047553;28;20060;-81
2022/01/13 18:02:59;;;;;;;29.40;19.08;;;7.20;78.40;;;;;;5049899;28;20021;-86
2022/01/13 18:05:25;;;;;;;40.58;23.77;;;7.10;78.10;;;;;;5049712;28;20025;-84
2022/01/13 18:07:50;;;;;;;40.60;25.80;;;7.00;78.90;;;;;;5053115;28;20025;-79
2022/01/13 18:10:16;;;;;;;35.65;22.55;;;6.90;79.80;;;;;;5051705;28;20116;-79
2022/01/13 18:12:45;;;;;;;43.25;22.23;;;6.80;80.00;;;;;;5051865;28;20036;-81
2022/01/13 18:15:12;;;;;;;36.92;23.13;;;6.90;80.10;;;;;;5040758;28;20033;-80
2022/01/13 18:17:40;;;;;;;48.40;25.67;;;6.80;80.30;;;;;;5054866;28;20029;-85
2022/01/13 18:20:11;;;;;;;30.85;17.70;;;6.70;80.50;;;;;;5040785;28;20032;-82
2022/01/13 18:22:38;;;;;;;24.10;14.55;;;6.60;80.70;;;;;;5044364;28;20029;-81
2022/01/13 18:25:05;;;;;;;20.00;12.43;;;6.60;81.10;;;;;;5049996;28;20028;-78
2022/01/13 18:27:31;;;;;;;19.23;11.25;;;6.50;81.30;;;;;;5034736;28;20794;-78
2022/01/13 18:29:56;;;;;;;22.85;11.60;;;6.60;81.30;;;;;;5045963;28;20076;-77
2022/01/13 18:32:22;;;;;;;19.45;11.82;;;6.60;81.30;;;;;;5048066;28;20087;-77
2022/01/13 18:34:48;;;;;;;18.73;12.27;;;6.60;81.20;;;;;;5038521;28;20037;-77
2022/01/13 18:37:14;;;;;;;20.27;11.20;;;6.70;80.70;;;;;;5051693;28;20025;-79
2022/01/13 18:39:39;;;;;;;20.45;11.48;;;6.70;80.70;;;;;;5031573;28;20092;-82
2022/01/13 18:42:12;;;;;;;19.50;11.60;;;6.70;80.20;;;;;;5049222;28;20049;-78
2022/01/13 18:44:38;;;;;;;18.42;12.02;;;6.60;80.50;;;;;;5040416;28;20056;-78
2022/01/13 18:47:09;;;;;;;11.68;8.82;;;6.50;80.90;;;;;;5038715;28;20013;-79
2022/01/13 18:49:35;;;;;;;18.92;9.38;;;6.40;81.60;;;;;;5043657;28;20415;-84
2022/01/13 18:52:00;;;;;;;13.32;9.00;;;6.30;81.80;;;;;;5039344;28;20091;-78
2022/01/13 18:54:26;;;;;;;17.90;9.45;;;6.30;81.80;;;;;;5047967;28;20025;-79
2022/01/13 18:56:52;;;;;;;16.25;10.27;;;6.30;82.00;;;;;;5048969;28;20112;-78
2022/01/13 18:59:20;;;;;;;15.20;10.18;;;6.40;81.70;;;;;;5037763;28;20041;-80
2022/01/13 19:01:45;;;;;;;14.65;9.60;;;6.40;80.70;;;;;;5045023;28;20065;-80
2022/01/13 19:04:18;;;;;;;21.02;12.30;;;6.40;81.30;;;;;;5045303;28;20025;-77
2022/01/13 19:06:45;;;;;;;18.73;13.68;;;6.20;81.70;;;;;;5041946;28;20546;-79
2022/01/13 19:09:14;;;;;;;16.98;11.80;;;6.20;82.00;;;;;;5043122;28;20044;-79
2022/01/13 19:11:43;;;;;;;17.45;11.77;;;6.20;82.20;;;;;;5051872;28;20045;-80
2022/01/13 19:14:10;;;;;;;20.08;12.07;;;6.30;81.50;;;;;;5040728;28;20029;-80
2022/01/13 19:16:36;;;;;;;17.23;11.00;;;6.30;80.90;;;;;;5041993;28;20033;-81
2022/01/13 19:19:07;;;;;;;15.05;9.85;;;6.30;80.70;;;;;;5039280;28;20527;-79
2022/01/13 19:21:33;;;;;;;20.02;12.18;;;6.30;80.50;;;;;;5041696;28;20070;-79
2022/01/13 19:24:01;;;;;;;28.98;16.40;;;6.40;80.60;;;;;;5040223;28;20044;-82
2022/01/13 19:26:27;;;;;;;28.98;18.08;;;6.30;80.30;;;;;;5045668;28;20403;-82
2022/01/13 19:28:53;;;;;;;40.72;23.50;;;6.30;80.30;;;;;;5047251;28;20022;-82
2022/01/13 19:31:20;;;;;;;34.25;20.25;;;6.20;80.30;;;;;;5042395;28;20561;-82
2022/01/13 19:33:46;;;;;;;38.28;21.10;;;6.20;80.40;;;;;;5042918;28;20701;-82
2022/01/13 19:36:12;;;;;;;41.25;20.73;;;6.30;80.10;;;;;;5054285;28;20090;-83
2022/01/13 19:38:39;;;;;;;23.42;14.38;;;6.20;80.20;;;;;;5047126;28;20495;-83
2022/01/13 19:41:09;;;;;;;19.83;12.98;;;6.20;80.60;;;;;;5060684;28;20108;-83
2022/01/13 19:43:36;;;;;;;23.23;12.93;;;6.10;81.30;;;;;;5040600;28;20033;-81
2022/01/13 19:46:02;;;;;;;20.38;12.18;;;6.00;81.50;;;;;;5046786;28;20029;-83
2022/01/13 19:48:30;;;;;;;21.65;12.98;;;6.10;81.30;;;;;;5048816;28;20032;-82